| time (UTC) | temp F | wind direction | speed knots | gust knots | rain 1hr in | rain 24hr in | rain mn in | humidity % | barometer mb |
| 20260502182504 | 75 | 333 | 3.5 | 11.3 | 0.00 | 0.10 | 0.01 | 50 | 1017.1 |
| 20260502182004 | 75 | 340 | 3.5 | 11.3 | 0.00 | 0.10 | 0.01 | 50 | 1017.4 |
| 20260502181504 | 75 | 0 | 2.6 | 7.8 | 0.00 | 0.10 | 0.01 | 50 | 1017.3 |
| 20260502181004 | 75 | 355 | 2.6 | 10.4 | 0.00 | 0.10 | 0.01 | 49 | 1017.4 |
| 20260502180504 | 75 | 12 | 2.6 | 6.1 | 0.00 | 0.10 | 0.01 | 52 | 1017.3 |
| 20260502170504 | 73 | 351 | 1.7 | 10.4 | 0.00 | 0.10 | 0.01 | 57 | 1017.5 |
| 20260502164004 | 72 | 22 | 2.6 | 10.4 | 0.00 | 0.10 | 0.01 | 60 | 1017.5 |
| 20260502163505 | 71 | 29 | 2.6 | 10.4 | 0.01 | 0.10 | 0.01 | 62 | 1017.4 |
| 20260502163005 | 71 | 348 | 1.7 | 8.7 | 0.01 | 0.10 | 0.01 | 61 | 1017.4 |
| 20260502162505 | 71 | 18 | 1.7 | 9.6 | 0.01 | 0.10 | 0.01 | 64 | 1017.4 |
| 20260502162005 | 71 | 0 | 2.6 | 8.7 | 0.01 | 0.10 | 0.01 | 65 | 1017.3 |
| 20260502161505 | 70 | 294 | 2.6 | 11.3 | 0.01 | 0.10 | 0.01 | 63 | 1017.1 |
| 20260502161005 | 70 | 19 | 1.7 | 7.8 | 0.01 | 0.10 | 0.01 | 66 | 1017.2 |
| 20260502160505 | 70 | 5 | 0.9 | 4.3 | 0.01 | 0.10 | 0.01 | 68 | 1017.2 |
| 20260502152005 | 67 | 46 | 1.7 | 5.2 | 0.00 | 0.09 | 0.00 | 77 | 1017.5 |
| 20260502151505 | 66 | 52 | 1.7 | 7.0 | 0.00 | 0.09 | 2.36 | 76 | 1017.4 |
| 20260502151005 | 65 | 9 | 1.7 | 7.8 | 0.00 | 0.09 | 2.36 | 78 | 1017.3 |
| 20260502150505 | 65 | 20 | 1.7 | 7.0 | 0.00 | 0.09 | 2.36 | 78 | 1017.4 |
| 20260502130505 | 56 | 19 | 1.7 | 4.3 | 0.00 | 0.09 | 2.36 | 93 | 1016.0 |
| 20260502123505 | 55 | 10 | 1.7 | 4.3 | 0.00 | 0.09 | 2.36 | 93 | 1015.7 |
| 20260502123005 | 55 | 14 | 1.7 | 4.3 | 0.00 | 0.09 | 2.36 | 93 | 1015.7 |
| 20260502122505 | 55 | 14 | 1.7 | 7.0 | 0.00 | 0.09 | 2.36 | 93 | 1015.6 |
| 20260502122005 | 55 | 11 | 1.7 | 4.3 | 0.00 | 0.09 | 2.36 | 93 | 1015.5 |
| 20260502121505 | 54 | 10 | 1.7 | 5.2 | 0.00 | 0.09 | 2.36 | 93 | 1015.4 |
| 20260502121005 | 54 | 5 | 1.7 | 4.3 | 0.00 | 0.09 | 2.36 | 93 | 1015.4 |
| 20260502120736 | 54 | 9 | 1.7 | 7.0 | 0.00 | 0.09 | 2.36 | 93 | 1015.3 |
| 20260502120505 | 54 | 9 | 1.7 | 7.0 | 0.00 | 0.09 | 2.36 | 93 | 1015.3 |
| 20260502115505 | 54 | 0 | 0.9 | 2.6 | 0.00 | 0.09 | 2.36 | 92 | 1015.2 |
| 20260502115005 | 54 | 0 | 1.7 | 2.6 | 0.00 | 0.09 | 2.36 | 92 | 1015.1 |
| 20260502114658 | 54 | 0 | 1.7 | 9.6 | 0.00 | 0.09 | 2.36 | 92 | 1015.0 |
| 20260502114505 | 54 | 0 | 1.7 | 9.6 | 0.00 | 0.09 | 2.36 | 92 | 1015.0 |
| 20260502114005 | 54 | 355 | 1.7 | 4.3 | 0.00 | 0.09 | 2.36 | 92 | 1014.9 |
| 20260502113505 | 54 | 345 | 1.7 | 6.1 | 0.00 | 0.09 | 2.36 | 92 | 1014.8 |
| 20260502113005 | 54 | 5 | 0.9 | 3.5 | 0.00 | 0.09 | 2.36 | 92 | 1014.8 |
| 20260502112505 | 54 | 5 | 1.7 | 5.2 | 0.00 | 0.09 | 2.36 | 91 | 1014.6 |
| 20260502112005 | 54 | 5 | 1.7 | 3.5 | 0.00 | 0.09 | 2.36 | 91 | 1014.7 |
| 20260502111505 | 54 | 5 | 2.6 | 8.7 | 0.00 | 0.09 | 2.36 | 91 | 1014.6 |
| 20260502111005 | 54 | 349 | 2.6 | 7.0 | 0.00 | 0.09 | 2.36 | 91 | 1014.5 |
| 20260502110505 | 54 | 32 | 2.6 | 5.2 | 0.00 | 0.09 | 2.36 | 91 | 1014.5 |
| 20260502110005 | 54 | 30 | 2.6 | 5.2 | 0.00 | 0.09 | 2.36 | 91 | 1014.5 |
| 20260502105505 | 54 | 40 | 1.7 | 7.8 | 0.00 | 0.09 | 2.36 | 91 | 1014.5 |
| 20260502105005 | 54 | 11 | 1.7 | 6.1 | 0.00 | 0.09 | 2.36 | 91 | 1014.4 |
| 20260502104505 | 54 | 5 | 0.9 | 7.0 | 0.00 | 0.09 | 2.36 | 92 | 1014.4 |
| 20260502104005 | 54 | 9 | 0.9 | 3.5 | 0.00 | 0.09 | 2.36 | 92 | 1014.3 |
| 20260502103505 | 54 | 9 | 0.0 | 2.6 | 0.00 | 0.09 | 2.36 | 92 | 1014.2 |
| 20260502103005 | 54 | 9 | 0.0 | 0.0 | 0.00 | 0.09 | 2.36 | 92 | 1014.0 |
| 20260502102505 | 54 | 9 | 0.9 | 3.5 | 0.00 | 0.09 | 2.36 | 91 | 1014.0 |
| 20260502102005 | 54 | 5 | 1.7 | 3.5 | 0.00 | 0.09 | 2.36 | 91 | 1013.9 |
| 20260502101505 | 54 | 5 | 1.7 | 3.5 | 0.00 | 0.09 | 2.36 | 92 | 1013.8 |
| 20260502101005 | 54 | 5 | 1.7 | 7.0 | 0.00 | 0.09 | 2.36 | 92 | 1013.7 |
| 20260502100505 | 54 | 9 | 1.7 | 6.1 | 0.00 | 0.09 | 2.36 | 92 | 1013.5 |
| 20260502091505 | 55 | 5 | 2.6 | 8.7 | 0.00 | 0.09 | 2.36 | 92 | 1013.0 |
| 20260502091005 | 55 | 5 | 2.6 | 8.7 | 0.00 | 0.09 | 2.36 | 92 | 1012.8 |
| 20260502090505 | 55 | 0 | 2.6 | 7.0 | 0.00 | 0.09 | 2.36 | 92 | 1012.9 |
| 20260502071505 | 57 | 11 | 2.6 | 8.7 | 0.00 | 0.09 | 2.36 | 96 | 1012.8 |
| 20260502071006 | 57 | 17 | 1.7 | 6.1 | 0.00 | 0.09 | 2.36 | 96 | 1012.8 |
| 20260502070505 | 57 | 11 | 1.7 | 5.2 | 0.00 | 0.09 | 2.36 | 96 | 1012.9 |
| 20260502070005 | 57 | 19 | 1.7 | 6.1 | 0.00 | 0.09 | 2.36 | 96 | 1012.7 |
| 20260502065506 | 57 | 355 | 1.7 | 6.1 | 0.00 | 0.09 | 2.36 | 96 | 1012.6 |
| 20260502065006 | 57 | 355 | 2.6 | 7.8 | 0.00 | 0.09 | 2.36 | 96 | 1012.6 |
| 20260502064506 | 57 | 11 | 2.6 | 7.0 | 0.00 | 0.09 | 2.36 | 96 | 1012.6 |
| 20260502064006 | 57 | 5 | 2.6 | 7.0 | 0.00 | 0.09 | 2.36 | 96 | 1012.4 |
| 20260502063506 | 56 | 355 | 2.6 | 7.0 | 0.00 | 0.09 | 2.36 | 96 | 1012.4 |
| 20260502063006 | 57 | 38 | 2.6 | 7.8 | 0.00 | 0.09 | 2.36 | 96 | 1012.5 |
| 20260502062506 | 56 | 346 | 2.6 | 8.7 | 0.00 | 0.09 | 2.36 | 96 | 1012.4 |
| 20260502062006 | 56 | 0 | 2.6 | 13.9 | 0.00 | 0.09 | 2.36 | 96 | 1012.3 |
| 20260502061506 | 56 | 29 | 2.6 | 7.0 | 0.00 | 0.09 | 2.36 | 96 | 1012.4 |
| 20260502061006 | 56 | 5 | 3.5 | 7.8 | 0.00 | 0.09 | 2.36 | 96 | 1012.4 |
| 20260502060506 | 56 | 5 | 3.5 | 7.8 | 0.00 | 0.09 | 2.36 | 96 | 1012.4 |
| 20260502060006 | 56 | 55 | 4.3 | 11.3 | 0.00 | 0.09 | 2.36 | 96 | 1012.4 |
| 20260502055506 | 56 | 9 | 3.5 | 9.6 | 0.00 | 0.09 | 2.36 | 96 | 1012.4 |
| 20260502055006 | 56 | 38 | 3.5 | 9.6 | 0.00 | 0.09 | 2.36 | 96 | 1012.5 |
| 20260502054506 | 56 | 22 | 3.5 | 8.7 | 0.00 | 0.09 | 2.36 | 96 | 1012.5 |
| 20260502054006 | 56 | 20 | 3.5 | 9.6 | 0.00 | 0.09 | 2.36 | 96 | 1012.5 |
| 20260502053506 | 56 | 0 | 3.5 | 8.7 | 0.00 | 0.09 | 2.36 | 96 | 1012.7 |
| 20260502053006 | 56 | 5 | 2.6 | 7.8 | 0.00 | 0.09 | 2.36 | 96 | 1012.7 |
| 20260502052506 | 56 | 15 | 1.7 | 8.7 | 0.00 | 0.09 | 2.36 | 96 | 1013.0 |
| 20260502052006 | 56 | 12 | 3.5 | 7.8 | 0.00 | 0.09 | 2.36 | 96 | 1013.0 |
| 20260502051506 | 56 | 17 | 4.3 | 13.0 | 0.00 | 0.09 | 2.36 | 96 | 1012.6 |
| 20260502051006 | 56 | 9 | 3.5 | 8.7 | 0.00 | 0.09 | 2.36 | 96 | 1012.6 |
| 20260502050506 | 56 | 36 | 4.3 | 9.6 | 0.00 | 0.09 | 2.36 | 96 | 1012.6 |
| 20260502050006 | 56 | 80 | 4.3 | 8.7 | 0.00 | 0.09 | 2.36 | 96 | 1012.6 |
| 20260502045506 | 56 | 54 | 3.5 | 8.7 | 0.00 | 0.09 | 2.36 | 96 | 1012.7 |
| 20260502045006 | 56 | 5 | 3.5 | 10.4 | 0.00 | 0.09 | 2.36 | 96 | 1012.7 |
| 20260502044506 | 56 | 350 | 2.6 | 8.7 | 0.00 | 0.09 | 2.36 | 96 | 1012.6 |
| 20260502044006 | 56 | 9 | 2.6 | 7.8 | 0.00 | 0.09 | 2.36 | 96 | 1012.7 |
| 20260502043506 | 56 | 15 | 2.6 | 7.8 | 0.00 | 0.09 | 2.36 | 96 | 1012.6 |
| 20260502043006 | 57 | 22 | 2.6 | 6.1 | 0.00 | 0.09 | 2.36 | 96 | 1012.7 |
| 20260502042506 | 57 | 5 | 1.7 | 7.8 | 0.00 | 0.09 | 2.36 | 96 | 1012.6 |
| 20260502042006 | 57 | 5 | 1.7 | 7.8 | 0.00 | 0.09 | 2.36 | 96 | 1012.6 |
| 20260502041506 | 57 | 355 | 1.7 | 7.0 | 0.00 | 0.09 | 2.36 | 96 | 1012.6 |
| 20260502041006 | 57 | 0 | 1.7 | 7.0 | 0.00 | 0.09 | 2.36 | 96 | 1012.5 |
| 20260502040506 | 57 | 0 | 2.6 | 7.0 | 0.00 | 0.09 | 2.36 | 96 | 1012.5 |
| 20260502040006 | 57 | 355 | 2.6 | 7.8 | 0.01 | 0.09 | 2.36 | 96 | 1012.5 |
| 20260502035506 | 57 | 14 | 2.6 | 8.7 | 0.04 | 0.09 | 2.36 | 96 | 1012.1 |
| 20260502035006 | 57 | 355 | 2.6 | 9.6 | 0.05 | 0.09 | 2.36 | 96 | 1012.0 |
| 20260502034506 | 58 | 5 | 2.6 | 9.6 | 0.05 | 0.09 | 2.36 | 96 | 1011.8 |
| 20260502034006 | 58 | 9 | 2.6 | 9.6 | 0.05 | 0.09 | 2.36 | 96 | 1011.7 |
| 20260502033506 | 58 | 35 | 2.6 | 8.7 | 0.05 | 0.09 | 2.36 | 96 | 1011.7 |
| 20260502033006 | 58 | 33 | 2.6 | 7.8 | 0.06 | 0.09 | 2.36 | 96 | 1011.5 |
| 20260502032506 | 58 | 17 | 2.6 | 7.0 | 0.07 | 0.09 | 2.36 | 96 | 1011.4 |
| 20260502032006 | 58 | 10 | 2.6 | 9.6 | 0.07 | 0.09 | 2.36 | 96 | 1011.2 |
| 20260502031506 | 58 | 12 | 1.7 | 8.7 | 0.07 | 0.09 | 2.36 | 96 | 1011.2 |
| 20260502031006 | 58 | 31 | 1.7 | 7.8 | 0.08 | 0.09 | 2.36 | 97 | 1010.8 |
| 20260502030506 | 58 | 0 | 2.6 | 7.8 | 0.08 | 0.09 | 2.36 | 97 | 1010.5 |
| 20260502030006 | 58 | 0 | 3.5 | 11.3 | 0.07 | 0.08 | 2.35 | 96 | 1010.5 |
| 20260502025506 | 59 | 15 | 3.5 | 10.4 | 0.04 | 0.05 | 2.32 | 96 | 1010.3 |
| 20260502025006 | 59 | 355 | 1.7 | 7.8 | 0.03 | 0.04 | 2.31 | 97 | 1010.5 |
| 20260502024506 | 59 | 19 | 0.0 | 6.1 | 0.03 | 0.04 | 2.31 | 97 | 1010.7 |
| 20260502024006 | 59 | 22 | 0.9 | 3.5 | 0.04 | 0.04 | 2.31 | 97 | 1010.8 |
| 20260502023506 | 59 | 19 | 0.9 | 4.3 | 0.04 | 0.04 | 2.31 | 97 | 1010.9 |
| 20260502023006 | 59 | 20 | 1.7 | 4.3 | 0.03 | 0.03 | 2.30 | 97 | 1010.7 |
| 20260502022506 | 59 | 15 | 1.7 | 6.1 | 0.02 | 0.02 | 2.29 | 97 | 1010.8 |
| 20260502022006 | 59 | 9 | 1.7 | 8.7 | 0.02 | 0.02 | 2.29 | 97 | 1010.8 |
| 20260502021506 | 59 | 21 | 1.7 | 7.0 | 0.02 | 0.02 | 2.29 | 97 | 1010.6 |
| 20260502021006 | 59 | 9 | 1.7 | 7.8 | 0.01 | 0.01 | 2.28 | 96 | 1010.5 |
| 20260502020506 | 59 | 18 | 1.7 | 7.8 | 0.01 | 0.01 | 2.28 | 96 | 1010.7 |
| 20260502020006 | 59 | 5 | 1.7 | 4.3 | 0.01 | 0.01 | 2.28 | 96 | 1010.7 |
| 20260502015506 | 59 | 11 | 1.7 | 6.1 | 0.01 | 0.01 | 2.28 | 96 | 1010.4 |
| 20260502015006 | 60 | 355 | 0.9 | 6.1 | 0.01 | 0.01 | 2.28 | 97 | 1010.3 |
| 20260502014506 | 60 | 5 | 0.9 | 7.0 | 0.01 | 0.01 | 2.28 | 97 | 1010.4 |
| 20260502014006 | 60 | 5 | 0.0 | 2.6 | 0.00 | 0.00 | 2.27 | 97 | 1010.1 |
| 20260502011424 | 60 | 355 | 0.9 | 3.5 | 0.17 | 2.37 | 2.24 | 97 | 1009.2 |
| 20260502010924 | 60 | 23 | 2.6 | 7.8 | 0.16 | 2.42 | 2.23 | 97 | 1008.9 |
| 20260502010424 | 60 | 0 | 2.6 | 7.0 | 0.16 | 2.42 | 2.23 | 97 | 1008.3 |
| 20260502005924 | 60 | 38 | 2.6 | 7.8 | 0.16 | 2.42 | 2.23 | 96 | 1008.1 |
| 20260502005424 | 60 | 26 | 2.6 | 7.0 | 0.16 | 2.41 | 2.22 | 96 | 1007.9 |
| 20260502004924 | 60 | 10 | 3.5 | 8.7 | 0.15 | 2.40 | 2.21 | 96 | 1008.1 |
| 20260502004424 | 60 | 5 | 3.5 | 9.6 | 0.13 | 2.37 | 2.18 | 96 | 1008.1 |
| 20260502003924 | 60 | 279 | 2.6 | 8.7 | 0.10 | 2.34 | 2.15 | 97 | 1008.3 |
| 20260502003424 | 60 | 347 | 2.6 | 6.1 | 0.06 | 2.30 | 2.11 | 97 | 1008.6 |
| 20260502002924 | 60 | 40 | 1.7 | 7.8 | 0.04 | 2.28 | 2.09 | 97 | 1008.4 |
| 20260502002424 | 60 | 351 | 2.6 | 3.5 | 0.05 | 2.28 | 2.09 | 97 | 1008.4 |
| 20260502001924 | 60 | 23 | 3.5 | 9.6 | 0.06 | 2.27 | 2.08 | 96 | 1008.2 |
| 20260502001424 | 60 | 0 | 3.5 | 8.7 | 0.06 | 2.26 | 2.07 | 96 | 1007.8 |
| 20260502000924 | 60 | 348 | 3.5 | 9.6 | 0.06 | 2.42 | 2.07 | 96 | 1007.0 |
| 20260502000424 | 60 | 5 | 3.5 | 9.6 | 0.06 | 2.42 | 2.07 | 96 | 1007.4 |
| 20260501235924 | 60 | 22 | 3.5 | 8.7 | 0.06 | 2.42 | 2.07 | 96 | 1007.8 |
| 20260501235424 | 61 | 355 | 3.5 | 12.2 | 0.05 | 2.41 | 2.06 | 96 | 1007.9 |
| 20260501234924 | 61 | 5 | 4.3 | 9.6 | 0.06 | 2.41 | 2.06 | 97 | 1007.8 |
| 20260501234424 | 61 | 26 | 3.5 | 10.4 | 0.05 | 2.40 | 2.05 | 97 | 1007.8 |
| 20260501233924 | 61 | 27 | 3.5 | 7.8 | 0.05 | 2.40 | 2.05 | 96 | 1007.5 |
| 20260501233424 | 61 | 5 | 3.5 | 10.4 | 0.06 | 2.40 | 2.05 | 96 | 1007.3 |
| 20260501232924 | 61 | 32 | 3.5 | 10.4 | 0.06 | 2.40 | 2.05 | 96 | 1006.9 |
| 20260501232424 | 61 | 11 | 2.6 | 9.6 | 0.05 | 2.39 | 2.04 | 97 | 1006.7 |
| 20260501231924 | 62 | 19 | 2.6 | 9.6 | 0.03 | 2.37 | 2.02 | 97 | 1006.7 |
| 20260501231424 | 62 | 5 | 2.6 | 7.8 | 0.02 | 2.36 | 2.01 | 97 | 1006.8 |
| 20260501230924 | 62 | 17 | 3.5 | 10.4 | 0.02 | 2.45 | 2.01 | 97 | 1006.8 |
| 20260501230424 | 62 | 9 | 3.5 | 8.7 | 0.02 | 2.45 | 2.01 | 97 | 1006.7 |
| 20260501225924 | 62 | 5 | 3.5 | 13.0 | 0.02 | 2.45 | 2.01 | 97 | 1006.7 |
| 20260501225424 | 62 | 0 | 2.6 | 9.6 | 0.03 | 2.45 | 2.01 | 97 | 1006.9 |
| 20260501224924 | 62 | 0 | 1.7 | 7.0 | 0.02 | 2.44 | 2.00 | 96 | 1007.3 |
| 20260501224424 | 62 | 40 | 1.7 | 5.2 | 0.02 | 2.44 | 2.00 | 96 | 1007.5 |
| 20260501223924 | 62 | 5 | 2.6 | 9.6 | 0.02 | 2.44 | 2.00 | 97 | 1007.5 |
| 20260501223424 | 62 | 355 | 3.5 | 13.0 | 0.02 | 2.43 | 1.99 | 97 | 1007.4 |
| 20260501222924 | 62 | 5 | 2.6 | 9.6 | 0.03 | 2.43 | 1.99 | 96 | 1007.3 |
| 20260501222424 | 62 | 13 | 1.7 | 8.7 | 0.05 | 2.43 | 1.99 | 97 | 1007.9 |
| 20260501221924 | 63 | 30 | 2.6 | 7.8 | 0.10 | 2.43 | 1.99 | 96 | 1008.0 |
| 20260501221424 | 63 | 5 | 2.6 | 8.7 | 0.13 | 2.43 | 1.99 | 97 | 1007.9 |
| 20260501220924 | 63 | 5 | 2.6 | 8.7 | 0.15 | 2.43 | 1.99 | 97 | 1007.8 |
| 20260501220424 | 63 | 5 | 2.6 | 8.7 | 0.17 | 2.43 | 1.99 | 97 | 1007.6 |
| 20260501215924 | 63 | 11 | 1.7 | 7.8 | 0.19 | 2.43 | 1.99 | 97 | 1007.4 |
| 20260501215424 | 63 | 351 | 1.7 | 9.6 | 0.19 | 2.42 | 1.98 | 97 | 1007.7 |
| 20260501214924 | 63 | 5 | 1.7 | 7.8 | 0.20 | 2.42 | 1.98 | 97 | 1007.2 |
| 20260501214424 | 63 | 9 | 1.7 | 7.0 | 0.21 | 2.42 | 1.98 | 97 | 1007.4 |
| 20260501213924 | 63 | 40 | 1.7 | 6.1 | 0.22 | 2.42 | 1.98 | 97 | 1007.6 |
| 20260501213424 | 63 | 47 | 3.5 | 7.8 | 0.23 | 2.41 | 1.97 | 97 | 1007.3 |
| 20260501212924 | 63 | 41 | 3.5 | 9.6 | 0.23 | 2.40 | 1.96 | 96 | 1006.5 |
| 20260501212424 | 63 | 5 | 2.6 | 8.7 | 0.24 | 2.38 | 1.94 | 96 | 1006.0 |
| 20260501211924 | 63 | 42 | 1.7 | 6.1 | 0.30 | 2.33 | 1.89 | 97 | 1006.8 |
| 20260501211424 | 64 | 24 | 2.6 | 7.0 | 0.34 | 2.30 | 1.86 | 97 | 1007.8 |
| 20260501210924 | 64 | 355 | 3.5 | 8.7 | 0.42 | 2.28 | 1.84 | 96 | 1007.3 |
| 20260501210424 | 64 | 92 | 3.5 | 11.3 | 0.40 | 2.26 | 1.82 | 96 | 1007.0 |
| 20260501205924 | 64 | 18 | 3.5 | 7.8 | 0.39 | 2.24 | 1.80 | 97 | 1007.0 |
| 20260501205424 | 64 | 47 | 2.6 | 9.6 | 0.41 | 2.23 | 1.79 | 97 | 1006.7 |
| 20260501204924 | 64 | 26 | 0.9 | 7.8 | 0.49 | 2.22 | 1.78 | 97 | 1006.8 |
| 20260501204424 | 64 | 42 | 1.7 | 3.5 | 0.63 | 2.21 | 1.77 | 97 | 1006.7 |
| 20260501203924 | 64 | 42 | 2.6 | 5.2 | 0.75 | 2.20 | 1.76 | 96 | 1006.6 |
| 20260501203424 | 64 | 38 | 2.6 | 10.4 | 0.76 | 2.18 | 1.74 | 96 | 1006.3 |
| 20260501202924 | 64 | 51 | 1.7 | 7.8 | 0.75 | 2.17 | 1.73 | 96 | 1005.8 |
| 20260501202425 | 64 | 42 | 2.6 | 5.2 | 0.74 | 2.14 | 1.70 | 96 | 1006.0 |
| 20260501201924 | 64 | 86 | 1.7 | 5.2 | 0.64 | 2.03 | 1.59 | 96 | 1005.2 |
| 20260501201425 | 64 | 42 | 0.9 | 3.5 | 0.57 | 1.96 | 1.52 | 96 | 1006.0 |
| 20260501200925 | 64 | 13 | 1.7 | 7.8 | 0.47 | 1.86 | 1.42 | 96 | 1006.5 |
| 20260501200425 | 64 | 14 | 2.6 | 7.8 | 0.47 | 1.86 | 1.42 | 96 | 1005.9 |
| 20260501195925 | 64 | 5 | 3.5 | 7.8 | 0.46 | 1.85 | 1.41 | 96 | 1005.9 |
| 20260501195425 | 64 | 40 | 4.3 | 9.6 | 0.43 | 1.82 | 1.38 | 96 | 1005.8 |
| 20260501194925 | 64 | 52 | 2.6 | 9.6 | 0.34 | 1.73 | 1.29 | 96 | 1005.3 |
| 20260501194425 | 64 | 70 | 0.9 | 6.1 | 0.19 | 1.58 | 1.14 | 96 | 1005.5 |
| 20260501193925 | 64 | 355 | 0.0 | 0.0 | 0.06 | 1.45 | 1.01 | 96 | 1007.4 |
| 20260501193425 | 64 | 355 | 1.7 | 7.0 | 0.03 | 1.42 | 0.98 | 96 | 1007.5 |
| 20260501192925 | 64 | 44 | 3.5 | 9.6 | 0.03 | 1.42 | 0.98 | 96 | 1006.1 |
| 20260501192425 | 64 | 11 | 3.5 | 11.3 | 0.01 | 1.40 | 0.96 | 96 | 1005.4 |
| 20260501191925 | 64 | 51 | 1.7 | 10.4 | 0.00 | 1.39 | 0.95 | 96 | 1005.9 |
| 20260501191425 | 64 | 48 | 1.7 | 7.0 | 0.00 | 1.39 | 0.95 | 96 | 1006.0 |
| 20260501190925 | 64 | 5 | 1.7 | 5.2 | 0.00 | 1.39 | 0.95 | 96 | 1006.5 |
| 20260501190425 | 64 | 5 | 2.6 | 7.8 | 0.00 | 1.39 | 0.95 | 96 | 1006.9 |
| 20260501185925 | 64 | 42 | 3.5 | 7.8 | 0.00 | 1.39 | 0.95 | 96 | 1006.5 |
| 20260501185425 | 64 | 51 | 2.6 | 9.6 | 0.00 | 1.39 | 0.95 | 96 | 1006.0 |
| 20260501184925 | 64 | 28 | 0.9 | 7.8 | 0.00 | 1.39 | 0.95 | 96 | 1006.1 |
| 20260501184425 | 64 | 18 | 0.9 | 3.5 | 0.00 | 1.39 | 0.95 | 96 | 1006.8 |
| 20260501183925 | 64 | 280 | 1.7 | 5.2 | 0.00 | 1.39 | 0.95 | 96 | 1007.1 |
| 20260501183425 | 64 | 281 | 1.7 | 8.7 | 0.00 | 1.39 | 0.95 | 96 | 1007.0 |
| 20260501182925 | 64 | 49 | 1.7 | 7.0 | 0.00 | 1.39 | 0.95 | 96 | 1006.3 |